首页
METAR-TAF:

METAR-TAF

机场 :

High Level, 艾伯塔, 加拿大

纬度: 58-37N, 经度: 117-10W, 海拔: 338米

当前天气观测

该预报发布于1小时和18分钟前的14:00 UTC
风速4节,风向东转东北,在东南之间变化
温度 10°C
湿度 71%
气压 1002 hPa
能見度: 24.1公里
多云层高于13000英尺
多云层高于26000英尺

METAR: CYOJ 261400Z 07004KT 010V130 15SM BKN130 BKN260 10/05 A2959 RMK AC5CI2 SLP029

时间: 09:18 (15:18 UTC)

预报

该预报发布于2小时和38分钟前的12:40 UTC
预报有效从26日的 13点(UTC)到 27日的 01点(UTC)
风速3节,风向多变
能見度: 10公里
多云层高于22000英尺
从 26日的 1800点(UTC)
风速8节,风向东南
能見度: 10公里
散云层高于8000英尺
多云层高于20000英尺
从 26日的 2000点(UTC)
风速8节,风向东南
能見度: 10公里
多云层高于8000英尺
短暂存在
从 26日的 20点(UTC)到 27日的 01点(UTC)
能見度: 10公里
小阵雨
几率 30%
从 26日的 20点(UTC)到 27日的 01点(UTC)
风速15节,风向多变,有时为25节阵风
能見度: 8.0公里
多云层高于6000英尺, 积雨云.
雷暴, 雨

TAF: CYOJ 261240Z 2613/2701 VRB03KT P6SM BKN220 FM261800 14008KT P6SM SCT080 BKN200 FM262000 14008KT P6SM BKN080 TEMPO 2620/2701 P6SM -SHRA PROB30 2620/2701 VRB15G25KT 5SM TSRA BKN060CB RMK FCST BASED ON AUTO OBS. NXT FCST BY 261900Z

超过4000个机场的气象观测和天气预报(METAR&TAF报告)。

可查询的气象台以黄色和红色小点在地图上表示。

将鼠标移到小点上方,可查看气象台名称。

然后点击查看天气观测和预报。

如需切换地图:点击带黑十字的绿色按钮放大地图;点击带横线的绿色按钮缩小地图;或者点击绿色箭头查看邻近地区的地图。


METAR-TAF: